Pagina principală
METAR-TAF:

METAR-TAF

Aeroporturi :

Ohrida, Macedonia

Latitudine: 41-07N, longitudine: 020-48E, elevație: 760 m

Observații meteo curente

Raportul a fost făcut în urmă cu 29 de minute, la 06:30 UTC
Vânt 2 kt de la Sud
Temperatură 21°C
Umiditate 64%
Presiune 1016 hPa
Vizibilitate de 10 km sau mai mult
nu există nori sub 1.500 m și nici cumulonimbus

METAR: LWOH 160630Z 17002KT CAVOK 21/14 Q1016

Ora: 08:59 (06:59 UTC)

Prognoză

Raportul a fost făcut în urmă cu 1 oră și 29 de minute, la 05:30 UTC
Prognoză valabilă de la 16 ora 06 UTC la 17 ora 06 UTC
Vânt 6 kt de la Sud/Sud-est
Vizibilitate de 10 km sau mai mult
nu există nori sub 1.500 m și nici cumulonimbus

TAF: LWOH 160530Z 1606/1706 16006KT CAVOK

Observații și prognoze meteo pentru peste 4.000 de aeroporturi (rapoarte METAR și TAF).

Stațiile disponibile sunt reprezentate pe hartă prin puncte galbene și roșii.

Țineți indicatorul mouse-ului pe punctul dorit pentru a vedea denumirea stației.

Apoi, faceți clic pentru a vedea observațiile și prognozele meteorologice.

Pentru a schimba harta: Pentru mărire, faceți clic pe butoanele verzi cu cruce neagră; pentru micșorare, pe butonul verde cu o liniuță; pentru hărți învecinate, pe săgețile verzi.


METAR-TAF: